Time;durP1;ratioP1;P1;durP2;ratioP2;P2;SDS_P1;SDS_P2;PMS_P1;PMS_P2;Temp;Humidity;BMP_temperature;BMP_pressure;BME280_temperature;BME280_humidity;BME280_pressure;Samples;Min_cycle;Max_cycle;Signal;HPM_P1;HPM_P2
2021/03/25 00:01:26;;;;;;;1999.90;999.90;;;;;;;7.58;71.56;98773.91;5066922;28;20055;-66
2021/03/25 00:03:54;;;;;;;1999.90;999.90;;;;;;;7.52;71.45;98770.41;5063910;28;20055;-66
2021/03/25 00:06:22;;;;;;;1999.90;999.90;;;;;;;7.34;72.62;98774.75;5065195;28;20056;-66
2021/03/25 00:08:48;;;;;;;1999.90;999.90;;;;;;;7.38;72.06;98762.06;5065275;28;20041;-66
2021/03/25 00:11:15;;;;;;;1999.90;999.90;;;;;;;7.54;71.82;98759.09;5059593;28;20294;-66
2021/03/25 00:13:42;;;;;;;1999.90;999.90;;;;;;;7.69;71.32;98769.09;5066983;28;20040;-66
2021/03/25 00:16:11;;;;;;;1999.90;999.90;;;;;;;7.63;71.24;98773.84;5061487;28;20067;-66
2021/03/25 00:18:38;;;;;;;1999.90;999.90;;;;;;;7.71;71.15;98764.94;5057440;28;20037;-66
2021/03/25 00:21:07;;;;;;;1999.90;999.90;;;;;;;7.64;71.01;98769.16;5064751;28;20445;-66
2021/03/25 00:23:34;;;;;;;1999.90;999.90;;;;;;;7.52;71.17;98772.34;5068112;28;20044;-64
2021/03/25 00:26:00;;;;;;;1999.90;999.90;;;;;;;7.58;71.28;98754.66;5070310;28;20055;-64
2021/03/25 00:28:27;;;;;;;1999.90;999.90;;;;;;;7.70;70.90;98762.47;5059505;28;20044;-64
2021/03/25 00:30:53;;;;;;;1999.90;999.90;;;;;;;7.67;70.60;98763.06;5070316;28;20458;-64
2021/03/25 00:33:23;;;;;;;1999.90;999.90;;;;;;;7.76;70.54;98755.78;5064199;28;20546;-64
2021/03/25 00:35:50;;;;;;;1999.90;999.90;;;;;;;7.65;70.74;98755.09;5065129;28;20385;-64
2021/03/25 00:38:17;;;;;;;1999.90;999.90;;;;;;;7.68;70.84;98749.00;5068577;28;20055;-65
2021/03/25 00:40:45;;;;;;;1999.90;999.90;;;;;;;7.78;70.48;98747.22;5059739;28;20454;-64
2021/03/25 00:43:13;;;;;;;1999.90;999.90;;;;;;;7.76;70.63;98747.50;5064547;28;20063;-64
2021/03/25 00:45:43;;;;;;;1999.90;999.90;;;;;;;7.61;70.69;98743.03;5063435;28;20071;-64
2021/03/25 00:48:11;;;;;;;1999.90;999.90;;;;;;;7.43;71.04;98741.06;5062895;28;20079;-64
2021/03/25 00:50:41;;;;;;;1999.90;999.90;;;;;;;7.57;70.91;98744.75;5066221;28;20048;-64
2021/03/25 00:53:09;;;;;;;1999.90;999.90;;;;;;;7.39;71.18;98743.63;5055061;28;20470;-64
2021/03/25 00:55:37;;;;;;;1999.90;999.90;;;;;;;7.46;70.94;98741.31;5068427;28;20599;-65
2021/03/25 00:58:03;;;;;;;1999.90;999.90;;;;;;;7.36;71.38;98735.94;5061797;28;20044;-65
2021/03/25 01:00:33;;;;;;;1999.90;999.90;;;;;;;7.25;71.67;98735.25;5068766;28;20121;-65
2021/03/25 01:03:00;;;;;;;1999.90;999.90;;;;;;;7.39;71.19;98727.09;5061135;28;20058;-65
2021/03/25 01:05:28;;;;;;;1999.90;999.90;;;;;;;7.34;71.55;98730.75;5062339;28;20044;-65
2021/03/25 01:07:54;;;;;;;1999.90;999.90;;;;;;;7.27;72.03;98726.72;5065185;28;20090;-65
2021/03/25 01:10:32;;;;;;;1999.90;999.90;;;;;;;7.38;71.44;98720.78;5059534;28;20063;-65
2021/03/25 01:12:59;;;;;;;1999.90;999.90;;;;;;;7.27;71.69;98716.53;5067574;28;20475;-65
2021/03/25 01:15:27;;;;;;;1999.90;999.90;;;;;;;7.33;71.72;98718.09;5061667;28;20045;-64
2021/03/25 01:17:57;;;;;;;1999.90;999.90;;;;;;;7.49;71.17;98717.88;5063701;28;20044;-65
2021/03/25 01:20:35;;;;;;;1999.90;999.90;;;;;;;7.57;70.78;98717.22;5066195;28;20495;-65
2021/03/25 01:23:01;;;;;;;1999.90;999.90;;;;;;;7.57;70.54;98719.97;5054927;28;20594;-65
2021/03/25 01:25:28;;;;;;;1999.90;999.90;;;;;;;7.43;71.25;98714.41;5068302;28;20049;-66
2021/03/25 01:27:59;;;;;;;1999.90;999.90;;;;;;;7.51;71.28;98710.97;5057246;28;20047;-66
2021/03/25 01:30:27;;;;;;;1999.90;999.90;;;;;;;7.51;71.05;98715.66;5067147;28;20051;-66
2021/03/25 01:32:58;;;;;;;1999.90;999.90;;;;;;;7.40;71.48;98721.31;5061611;28;20049;-66
2021/03/25 01:35:26;;;;;;;1999.90;999.90;;;;;;;7.56;71.18;98712.81;5056184;28;20040;-66
2021/03/25 01:37:53;;;;;;;1999.90;999.90;;;;;;;7.60;70.84;98711.13;5067643;28;20052;-66
2021/03/25 01:40:31;;;;;;;1999.90;999.90;;;;;;;7.60;70.74;98713.88;5065341;28;20226;-66
2021/03/25 01:43:28;;;;;;;1999.90;999.90;;;;;;;7.64;70.57;98706.66;5067613;28;20470;-66
2021/03/25 01:46:04;;;;;;;1999.90;999.90;;;;;;;7.45;71.01;98708.59;5066011;28;20558;-66
2021/03/25 01:48:38;;;;;;;1999.90;999.90;;;;;;;7.39;70.88;98705.91;5068024;28;20055;-66
2021/03/25 01:51:12;;;;;;;1999.90;999.90;;;;;;;7.49;70.95;98701.38;5066351;28;20049;-66
2021/03/25 01:53:57;;;;;;;1999.90;999.90;;;;;;;7.50;70.50;98694.75;5060735;28;20044;-66
2021/03/25 01:57:04;;;;;;;1999.90;999.90;;;;;;;7.50;70.52;98692.84;5066082;28;20082;-66
2021/03/25 01:59:53;;;;;;;1999.90;999.90;;;;;;;7.45;70.91;98689.34;5065038;28;20047;-66
2021/03/25 02:02:33;;;;;;;1999.90;999.90;;;;;;;7.56;70.74;98690.81;5060961;28;20415;-66
2021/03/25 02:05:02;;;;;;;1999.90;999.90;;;;;;;7.57;70.60;98693.25;5062174;28;20045;-66
2021/03/25 02:07:42;;;;;;;1999.90;999.90;;;;;;;7.49;70.63;98687.59;5066536;28;20067;-66
2021/03/25 02:10:33;;;;;;;1999.90;999.90;;;;;;;7.34;71.22;98692.22;5056656;28;20083;-66
2021/03/25 02:13:25;;;;;;;1999.90;999.90;;;;;;;7.38;71.35;98696.03;5065535;28;20047;-66
2021/03/25 02:16:00;;;;;;;1999.90;999.90;;;;;;;7.36;71.21;98681.72;5064451;28;20040;-66
2021/03/25 02:18:56;;;;;;;1999.90;999.90;;;;;;;7.33;71.33;98687.81;5061456;28;20411;-66
2021/03/25 02:21:53;;;;;;;1999.90;999.90;;;;;;;7.32;71.15;98680.69;5067142;28;20412;-66
2021/03/25 02:24:41;;;;;;;1999.90;999.90;;;;;;;7.39;71.20;98675.63;5060133;28;20056;-66
2021/03/25 02:27:28;;;;;;;1999.90;999.90;;;;;;;7.49;70.81;98676.59;5062602;28;20067;-66
2021/03/25 02:30:11;;;;;;;1999.90;999.90;;;;;;;7.50;70.72;98684.59;5066375;28;20040;-66
2021/03/25 02:32:45;;;;;;;1999.90;999.90;;;;;;;7.21;71.57;98684.69;5066927;28;20048;-66
2021/03/25 02:35:37;;;;;;;1999.90;999.90;;;;;;;7.24;71.50;98681.34;5053033;28;20599;-66
2021/03/25 02:38:30;;;;;;;1999.90;999.90;;;;;;;6.89;72.67;98680.69;5066536;28;20513;-64
2021/03/25 02:41:00;;;;;;;1999.90;999.90;;;;;;;7.21;72.16;98674.50;5065073;28;20048;-65
2021/03/25 02:43:41;;;;;;;1999.90;999.90;;;;;;;7.42;71.18;98673.44;5063246;28;20041;-65
2021/03/25 02:46:16;;;;;;;1999.90;999.90;;;;;;;7.30;71.50;98679.38;5063919;28;20408;-65
2021/03/25 02:48:46;;;;;;;1999.90;999.90;;;;;;;7.25;71.61;98674.75;5061645;28;20045;-65
2021/03/25 02:51:21;;;;;;;1999.90;999.90;;;;;;;7.27;71.59;98675.25;5067277;28;20406;-65
2021/03/25 02:53:48;;;;;;;1999.90;999.90;;;;;;;7.26;71.61;98670.06;5061046;28;20126;-65
2021/03/25 02:56:26;;;;;;;1999.90;999.90;;;;;;;7.30;71.41;98676.63;5057191;28;20048;-65
2021/03/25 02:59:00;;;;;;;1999.90;999.90;;;;;;;7.25;71.80;98672.00;5064558;28;20191;-65
2021/03/25 03:01:31;;;;;;;1999.90;999.90;;;;;;;7.27;71.72;98683.50;5064945;28;20049;-65
2021/03/25 03:04:07;;;;;;;1999.90;999.90;;;;;;;7.27;71.72;98675.25;5064540;28;20049;-65
2021/03/25 03:06:41;;;;;;;1999.90;999.90;;;;;;;7.22;71.53;98673.41;5064516;28;20052;-65
2021/03/25 03:09:13;;;;;;;1999.90;999.90;;;;;;;7.22;71.66;98675.34;5061008;28;20500;-65
2021/03/25 03:11:44;;;;;;;1999.90;999.90;;;;;;;7.02;72.51;98679.97;5063842;28;20056;-65
2021/03/25 03:14:17;;;;;;;;;;;;;;;6.96;72.47;98681.16;5060847;28;20056;-65
2021/03/25 03:16:48;;;;;;;1999.90;999.90;;;;;;;6.87;73.08;98675.47;5066420;28;20015;-65
2021/03/25 03:19:36;;;;;;;1999.90;999.90;;;;;;;7.12;72.22;98676.28;5059361;28;20052;-65
2021/03/25 03:22:07;;;;;;;1999.90;999.90;;;;;;;7.14;72.37;98678.75;5067972;28;20472;-65
2021/03/25 03:24:35;;;;;;;1999.90;999.90;;;;;;;7.35;71.59;98679.28;5064643;28;20597;-65
2021/03/25 03:27:12;;;;;;;1999.90;999.90;;;;;;;7.35;71.48;98677.38;5058744;28;20985;-65
2021/03/25 03:29:42;;;;;;;1999.90;999.90;;;;;;;7.44;71.08;98673.94;5068316;28;20495;-65
2021/03/25 03:32:47;;;;;;;1999.90;999.90;;;;;;;7.42;70.92;98674.22;5059464;28;20266;-65
2021/03/25 03:35:19;;;;;;;1999.90;999.90;;;;;;;7.18;71.82;98680.59;5048953;28;20056;-65
2021/03/25 03:37:50;;;;;;;1999.90;999.90;;;;;;;7.22;71.77;98678.91;5065098;28;20048;-65
2021/03/25 03:40:37;;;;;;;1999.90;999.90;;;;;;;7.04;72.19;98677.75;5060792;28;20048;-65
2021/03/25 03:43:07;;;;;;;1999.90;999.90;;;;;;;7.16;72.19;98677.34;5058309;28;20064;-65
2021/03/25 03:45:42;;;;;;;1999.90;999.90;;;;;;;7.25;72.04;98674.75;5064890;28;20062;-65
2021/03/25 03:48:16;;;;;;;1999.90;999.90;;;;;;;7.32;71.56;98672.44;5055681;28;20063;-65
2021/03/25 03:50:48;;;;;;;1999.90;999.90;;;;;;;7.38;71.41;98671.25;5067176;28;20056;-65
2021/03/25 03:53:15;;;;;;;1999.90;999.90;;;;;;;7.01;72.44;98672.84;5058535;28;20067;-65
2021/03/25 03:55:42;;;;;;;1999.90;999.90;;;;;;;6.94;72.55;98661.38;5064335;28;20040;-65
2021/03/25 03:58:27;;;;;;;1999.90;999.90;;;;;;;6.92;72.42;98674.59;5065390;28;20051;-65
2021/03/25 04:01:01;;;;;;;1999.90;999.90;;;;;;;6.61;73.46;98661.22;5058818;28;20048;-65
2021/03/25 04:03:34;;;;;;;1999.90;999.90;;;;;;;6.68;73.55;98656.22;5068758;28;20067;-65
2021/03/25 04:06:04;;;;;;;1999.90;999.90;;;;;;;6.55;73.93;98656.06;5064038;28;20063;-65
2021/03/25 04:08:40;;;;;;;1999.90;999.90;;;;;;;6.38;74.91;98656.53;5064267;28;20059;-65
2021/03/25 04:11:13;;;;;;;1999.90;999.90;;;;;;;6.15;75.38;98647.97;5068108;28;20052;-64
2021/03/25 04:13:48;;;;;;;1999.90;999.90;;;;;;;6.28;74.86;98644.56;5060996;28;20135;-65
2021/03/25 04:16:17;;;;;;;1999.90;999.90;;;;;;;6.20;75.47;98650.66;5068627;28;21870;-65
2021/03/25 04:18:56;;;;;;;1999.90;999.90;;;;;;;5.79;76.71;98653.72;5061543;28;20048;-65
2021/03/25 04:21:38;;;;;;;1999.90;999.90;;;;;;;5.73;77.30;98655.72;5069612;28;20047;-65
2021/03/25 04:24:11;;;;;;;1999.90;999.90;;;;;;;6.07;76.12;98651.34;5067295;28;20036;-65
2021/03/25 04:26:43;;;;;;;1999.90;999.90;;;;;;;5.85;76.82;98644.38;5063733;28;20533;-64
2021/03/25 04:29:16;;;;;;;1999.90;999.90;;;;;;;5.92;76.76;98650.31;5061694;28;20049;-64
2021/03/25 04:31:43;;;;;;;1999.90;999.90;;;;;;;6.13;75.95;98644.69;5065671;28;20082;-64
2021/03/25 04:34:10;;;;;;;1999.90;999.90;;;;;;;6.19;75.35;98646.25;5068369;28;20125;-65
2021/03/25 04:36:40;;;;;;;1999.90;999.90;;;;;;;6.08;75.78;98648.31;5067462;28;20056;-64
2021/03/25 04:39:10;;;;;;;1999.90;999.90;;;;;;;6.30;75.36;98647.81;5062179;28;20103;-65
2021/03/25 04:41:40;;;;;;;1999.90;999.90;;;;;;;6.43;74.67;98643.56;5069763;28;20049;-65
2021/03/25 04:44:16;;;;;;;1999.90;999.90;;;;;;;6.22;75.09;98648.44;5060289;28;20037;-65
2021/03/25 04:47:00;;;;;;;1999.90;999.90;;;;;;;6.08;75.58;98655.72;5068087;28;20056;-64
2021/03/25 04:49:40;;;;;;;1999.90;999.90;;;;;;;5.52;77.44;98649.53;5068819;28;20484;-64
2021/03/25 04:52:15;;;;;;;1999.90;999.90;;;;;;;5.39;78.20;98658.41;5062469;28;20515;-64
2021/03/25 04:54:42;;;;;;;1999.90;999.90;;;;;;;5.84;77.28;98652.88;5067704;28;20508;-64
2021/03/25 04:57:20;;;;;;;1999.90;999.90;;;;;;;5.88;76.85;98649.28;5067097;28;20048;-64
2021/03/25 04:59:46;;;;;;;1999.90;999.90;;;;;;;6.06;75.81;98645.03;5060496;28;20052;-65
2021/03/25 05:02:13;;;;;;;1999.90;999.90;;;;;;;5.72;77.19;98650.50;5063214;28;20105;-65
2021/03/25 05:04:45;;;;;;;1999.90;999.90;;;;;;;5.67;77.46;98653.28;5056386;28;20049;-66
2021/03/25 05:07:34;;;;;;;1999.90;999.90;;;;;;;5.38;78.36;98659.53;5062223;28;20048;-65
2021/03/25 05:10:01;;;;;;;1999.90;999.90;;;;;;;5.55;78.23;98654.47;5058263;28;20049;-65
2021/03/25 05:12:29;;;;;;;1999.90;999.90;;;;;;;5.54;78.20;98666.53;5063150;28;20063;-65
2021/03/25 05:15:17;;;;;;;1999.90;999.90;;;;;;;5.66;78.34;98652.47;5062077;28;20497;-65
2021/03/25 05:18:09;;;;;;;1999.90;999.90;;;;;;;5.75;77.86;98658.16;5065178;28;20056;-65
2021/03/25 05:21:01;;;;;;;1999.90;999.90;;;;;;;5.62;78.46;98662.38;5061447;28;20052;-65
2021/03/25 05:23:32;;;;;;;1999.90;999.90;;;;;;;5.56;78.48;98664.31;5061118;28;20121;-65
2021/03/25 05:26:22;;;;;;;1999.90;999.90;;;;;;;5.45;78.77;98671.00;5057750;28;20123;-65
2021/03/25 05:29:00;;;;;;;1999.90;999.90;;;;;;;5.61;78.57;98667.06;5059079;28;20049;-65
2021/03/25 05:31:32;;;;;;;1999.90;999.90;;;;;;;5.40;79.04;98665.53;5061459;28;20048;-65
2021/03/25 05:34:04;;;;;;;1999.90;999.90;;;;;;;5.75;78.30;98666.41;5062987;28;20688;-65
2021/03/25 05:36:30;;;;;;;1999.90;999.90;;;;;;;5.91;77.54;98667.91;5062466;28;20051;-65
2021/03/25 05:38:58;;;;;;;1999.90;999.90;;;;;;;6.36;76.24;98670.56;5060134;28;20048;-65
2021/03/25 05:41:48;;;;;;;1999.90;999.90;;;;;;;6.76;74.85;98670.38;5062257;28;20379;-65
2021/03/25 05:44:51;;;;;;;1999.90;999.90;;;;;;;6.27;75.41;98675.06;5059441;28;20503;-65
2021/03/25 05:47:23;;;;;;;1999.90;999.90;;;;;;;6.13;76.49;98672.97;5061610;28;20060;-65
2021/03/25 05:50:11;;;;;;;1999.90;999.90;;;;;;;6.69;74.43;98673.50;5050796;28;20099;-65
2021/03/25 05:52:46;;;;;;;1999.90;999.90;;;;;;;6.87;74.05;98671.91;5064629;28;20044;-65
2021/03/25 05:55:22;;;;;;;1999.90;999.90;;;;;;;6.78;74.08;98679.19;5059963;28;20080;-65
2021/03/25 05:58:19;;;;;;;1999.90;999.90;;;;;;;7.09;73.06;98670.56;5056840;28;20064;-65
2021/03/25 06:00:51;;;;;;;1999.90;999.90;;;;;;;7.32;72.31;98666.94;5065446;28;20052;-65
2021/03/25 06:03:20;;;;;;;1999.90;999.90;;;;;;;7.16;72.80;98682.00;5056558;28;20853;-65
2021/03/25 06:05:58;;;;;;;1999.90;999.90;;;;;;;7.34;71.79;98681.22;5063985;28;20135;-65
2021/03/25 06:08:31;;;;;;;1999.90;999.90;;;;;;;7.44;71.42;98676.69;5063035;28;20048;-65
2021/03/25 06:11:19;;;;;;;1999.90;999.90;;;;;;;7.71;71.20;98682.34;5058596;28;20048;-65
2021/03/25 06:14:00;;;;;;;1999.90;999.90;;;;;;;7.63;70.32;98673.94;5059543;28;20083;-65
2021/03/25 06:16:50;;;;;;;1999.90;999.90;;;;;;;7.40;70.93;98682.78;5059595;28;20052;-65
2021/03/25 06:19:41;;;;;;;1999.90;999.90;;;;;;;7.13;72.04;98683.44;5057364;28;20836;-65
2021/03/25 06:22:21;;;;;;;1999.90;999.90;;;;;;;7.26;71.39;98679.13;5063989;28;20060;-65
2021/03/25 06:25:19;;;;;;;1999.90;999.90;;;;;;;7.10;71.25;98688.69;5054671;28;20048;-65
2021/03/25 06:28:00;;;;;;;1999.90;999.90;;;;;;;6.93;72.62;98690.00;5062221;28;20074;-64
2021/03/25 06:30:31;;;;;;;1999.90;999.90;;;;;;;7.55;71.37;98691.94;5063140;28;20052;-65
2021/03/25 06:32:59;;;;;;;1999.90;999.90;;;;;;;7.37;71.52;98696.31;5063054;28;20044;-65
2021/03/25 06:35:34;;;;;;;1999.90;999.90;;;;;;;7.10;71.92;98694.19;5061857;28;20060;-64
2021/03/25 06:38:06;;;;;;;1999.90;999.90;;;;;;;7.45;70.89;98703.09;5060351;28;20483;-65
2021/03/25 06:40:37;;;;;;;1999.90;999.90;;;;;;;7.63;70.54;98702.28;5061663;28;20361;-65
2021/03/25 06:43:19;;;;;;;1999.90;999.90;;;;;;;7.99;69.49;98709.97;5061083;28;20057;-64
2021/03/25 06:45:53;;;;;;;1999.90;999.90;;;;;;;7.81;70.05;98708.88;5060198;28;20448;-65
2021/03/25 06:48:51;;;;;;;1999.90;999.90;;;;;;;7.82;69.15;98706.97;5063527;28;20495;-65
2021/03/25 06:51:22;;;;;;;1999.90;999.90;;;;;;;8.07;69.27;98711.25;5052276;28;20094;-65
2021/03/25 06:53:52;;;;;;;1999.90;999.90;;;;;;;8.01;68.83;98717.94;5059853;28;20133;-65
2021/03/25 06:56:30;;;;;;;1999.90;999.90;;;;;;;8.13;68.85;98714.72;5058622;28;20061;-65
2021/03/25 06:59:00;;;;;;;1999.90;999.90;;;;;;;8.02;69.17;98714.88;5056944;28;20049;-65
2021/03/25 07:01:38;;;;;;;1999.90;999.90;;;;;;;7.99;68.59;98714.69;5060404;28;20461;-65
2021/03/25 07:04:27;;;;;;;1999.90;999.90;;;;;;;8.11;68.73;98717.78;5060018;28;20071;-65
2021/03/25 07:07:04;;;;;;;1999.90;999.90;;;;;;;8.13;68.76;98729.34;5062355;28;20114;-65
2021/03/25 07:09:34;;;;;;;1999.90;999.90;;;;;;;8.36;68.22;98730.31;5061749;28;20071;-65
2021/03/25 07:12:17;;;;;;;1999.90;999.90;;;;;;;8.35;68.47;98725.09;5056879;28;20422;-65
2021/03/25 07:14:44;;;;;;;1999.90;999.90;;;;;;;8.39;67.89;98724.19;5061472;28;20385;-65
2021/03/25 07:17:14;;;;;;;1999.90;999.90;;;;;;;8.40;68.65;98725.84;5061322;28;20095;-65
2021/03/25 07:19:49;;;;;;;1999.90;999.90;;;;;;;8.59;67.72;98722.22;5050339;28;20045;-65
2021/03/25 07:22:15;;;;;;;1999.90;999.90;;;;;;;8.77;67.58;98723.28;5055933;28;20052;-65
2021/03/25 07:24:41;;;;;;;1999.90;999.90;;;;;;;8.22;67.08;98729.47;5058742;28;20044;-65
2021/03/25 07:27:19;;;;;;;1999.90;999.90;;;;;;;8.35;67.93;98731.44;5059209;28;20053;-65
2021/03/25 07:29:56;;;;;;;1999.90;999.90;;;;;;;8.19;67.86;98727.31;5058700;28;20487;-65
2021/03/25 07:32:31;;;;;;;1999.90;999.90;;;;;;;8.22;67.40;98734.97;5049967;28;20105;-65
2021/03/25 07:35:10;;;;;;;1999.90;999.90;;;;;;;7.95;68.27;98725.50;5063683;28;20045;-65
2021/03/25 07:37:39;;;;;;;1999.90;999.90;;;;;;;8.55;67.42;98722.03;5057185;28;20052;-65
2021/03/25 07:40:20;;;;;;;1999.90;999.90;;;;;;;8.50;67.14;98719.38;5063235;28;20055;-66
2021/03/25 07:42:47;;;;;;;1999.90;999.90;;;;;;;8.40;67.28;98727.78;5062293;28;20379;-65
2021/03/25 07:45:33;;;;;;;1999.90;999.90;;;;;;;7.90;67.95;98728.31;5057602;28;20044;-65
2021/03/25 07:48:16;;;;;;;1999.90;999.90;;;;;;;8.25;67.42;98728.88;5056598;28;20064;-65
2021/03/25 07:50:45;;;;;;;1999.90;999.90;;;;;;;8.26;67.85;98730.47;5058979;28;20191;-65
2021/03/25 07:53:27;;;;;;;1999.90;999.90;;;;;;;8.34;67.33;98729.00;5054412;28;20421;-65
2021/03/25 07:56:05;;;;;;;1999.90;999.90;;;;;;;8.33;66.96;98730.91;5062091;28;20044;-65
2021/03/25 07:58:42;;;;;;;1999.90;999.90;;;;;;;8.53;66.44;98726.19;5063120;28;20496;-65
2021/03/25 08:01:15;;;;;;;1999.90;999.90;;;;;;;8.81;65.59;98733.41;5061212;28;20052;-65
2021/03/25 08:03:46;;;;;;;1999.90;999.90;;;;;;;8.86;65.13;98728.91;5055915;28;20597;-65
2021/03/25 08:06:20;;;;;;;1999.90;999.90;;;;;;;9.14;65.12;98736.06;5053895;28;20119;-66
2021/03/25 08:09:06;;;;;;;1999.90;999.90;;;;;;;9.63;64.13;98730.06;5058694;28;20059;-65
2021/03/25 08:11:34;;;;;;;1999.90;999.90;;;;;;;9.56;62.88;98738.81;5058662;28;20045;-65
2021/03/25 08:14:15;;;;;;;1999.90;999.90;;;;;;;9.67;64.09;98722.81;5059717;28;20496;-65
2021/03/25 08:16:45;;;;;;;1999.90;999.90;;;;;;;9.48;63.75;98734.84;5052582;28;20079;-65
2021/03/25 08:19:33;;;;;;;1999.90;999.90;;;;;;;9.03;63.96;98729.13;5057908;28;20059;-65
2021/03/25 08:22:18;;;;;;;1999.90;999.90;;;;;;;8.97;64.54;98736.66;5062675;28;20052;-65
2021/03/25 08:25:03;;;;;;;1999.90;999.90;;;;;;;9.19;64.27;98734.34;5058062;28;20086;-65
2021/03/25 08:28:09;;;;;;;1999.90;999.90;;;;;;;9.06;64.36;98734.03;5058675;28;20049;-65
2021/03/25 08:30:48;;;;;;;1999.90;999.90;;;;;;;9.46;62.47;98728.78;5055189;28;20048;-65
2021/03/25 08:33:53;;;;;;;1999.90;999.90;;;;;;;9.79;62.41;98727.78;5049777;28;20068;-65
2021/03/25 08:36:28;;;;;;;1999.90;999.90;;;;;;;10.34;62.11;98729.56;5056127;28;20143;-65
2021/03/25 08:39:19;;;;;;;1999.90;999.90;;;;;;;10.81;60.59;98720.88;5062005;28;20059;-65
2021/03/25 08:42:14;;;;;;;1999.90;999.90;;;;;;;10.97;61.11;98716.56;5063231;28;20508;-65
2021/03/25 08:44:49;;;;;;;1999.90;999.90;;;;;;;11.01;59.97;98722.28;5059531;28;20053;-65
2021/03/25 08:47:53;;;;;;;1999.90;999.90;;;;;;;11.28;59.86;98724.81;5061132;28;20128;-65
2021/03/25 08:50:50;;;;;;;1999.90;999.90;;;;;;;11.59;58.56;98726.66;5057025;28;20145;-66
2021/03/25 08:53:19;;;;;;;1999.90;999.90;;;;;;;11.72;57.96;98722.13;5065023;28;20049;-66
2021/03/25 08:55:49;;;;;;;1999.90;999.90;;;;;;;11.92;57.61;98725.41;5057335;28;20052;-66
2021/03/25 08:58:22;;;;;;;1999.90;999.90;;;;;;;11.69;57.59;98724.75;5056292;28;20055;-66
2021/03/25 09:00:51;;;;;;;1999.90;999.90;;;;;;;11.03;59.53;98722.75;5059165;28;20052;-65
2021/03/25 09:03:19;;;;;;;1999.90;999.90;;;;;;;11.43;59.08;98711.63;5057901;28;20064;-65
2021/03/25 09:06:08;;;;;;;1999.90;999.90;;;;;;;11.67;58.31;98721.47;5065171;28;20476;-65
2021/03/25 09:08:39;;;;;;;1999.90;999.90;;;;;;;11.87;57.60;98712.50;5058178;28;20055;-66
2021/03/25 09:11:13;;;;;;;1999.90;999.90;;;;;;;12.74;56.25;98719.13;5057232;28;20408;-65
2021/03/25 09:14:04;;;;;;;1999.90;999.90;;;;;;;12.34;55.32;98717.41;5063514;28;20552;-66
2021/03/25 09:16:36;;;;;;;1999.90;999.90;;;;;;;12.14;56.01;98722.47;5059977;28;20055;-66
2021/03/25 09:19:15;;;;;;;1999.90;999.90;;;;;;;12.41;56.06;98711.38;5060381;28;20480;-65
2021/03/25 09:21:46;;;;;;;1999.90;999.90;;;;;;;12.64;53.86;98718.34;5063255;28;20055;-65
2021/03/25 09:24:14;;;;;;;1999.90;999.90;;;;;;;12.71;53.83;98714.22;5063955;28;20048;-65
2021/03/25 09:26:40;;;;;;;1999.90;999.90;;;;;;;12.61;55.21;98710.69;5064561;28;20052;-66
2021/03/25 09:29:10;;;;;;;1999.90;999.90;;;;;;;13.09;52.59;98713.44;5061648;28;20045;-66
2021/03/25 09:32:03;;;;;;;1999.90;999.90;;;;;;;12.93;53.43;98711.22;5062835;28;20052;-65
2021/03/25 09:34:47;;;;;;;1999.90;999.90;;;;;;;13.39;52.35;98711.53;5061210;28;20048;-66
2021/03/25 09:37:24;;;;;;;1999.90;999.90;;;;;;;13.87;50.72;98717.72;5058307;28;20049;-66
2021/03/25 09:40:11;;;;;;;1999.90;999.90;;;;;;;13.58;50.77;98711.06;5061719;28;20052;-66
2021/03/25 09:42:39;;;;;;;1999.90;999.90;;;;;;;13.87;50.82;98698.28;5058320;28;20114;-66
2021/03/25 09:45:33;;;;;;;1999.90;999.90;;;;;;;13.71;47.34;98704.44;5065131;28;20040;-67
2021/03/25 09:48:03;;;;;;;1999.90;999.90;;;;;;;12.61;51.13;98707.91;5058827;28;20049;-66
2021/03/25 09:50:32;;;;;;;1999.90;999.90;;;;;;;13.72;47.86;98696.91;5059047;28;20079;-66
2021/03/25 09:53:15;;;;;;;1999.90;999.90;;;;;;;14.28;45.83;98699.41;5060939;28;20053;-67
2021/03/25 09:56:02;;;;;;;1999.90;999.90;;;;;;;13.08;49.32;98704.28;5057673;28;20063;-66
2021/03/25 09:58:44;;;;;;;1999.90;999.90;;;;;;;12.66;51.02;98707.72;5066540;28;20056;-66
2021/03/25 10:01:39;;;;;;;1999.90;999.90;;;;;;;12.85;50.03;98701.78;5062535;28;20403;-67
2021/03/25 10:04:27;;;;;;;1999.90;999.90;;;;;;;13.35;48.60;98697.50;5057973;28;20075;-66
2021/03/25 10:07:01;;;;;;;1999.90;999.90;;;;;;;13.23;50.42;98704.88;5058534;28;20140;-66
2021/03/25 10:09:48;;;;;;;1999.90;999.90;;;;;;;13.61;47.20;98699.28;5056739;28;20052;-66
2021/03/25 10:12:47;;;;;;;1999.90;999.90;;;;;;;14.37;46.54;98699.31;5052196;28;20079;-66
2021/03/25 10:15:48;;;;;;;1999.90;999.90;;;;;;;14.70;46.57;98699.31;5058296;28;20040;-66
2021/03/25 10:18:17;;;;;;;1999.90;999.90;;;;;;;13.55;46.35;98703.41;5049022;28;20056;-66
2021/03/25 10:20:46;;;;;;;1999.90;999.90;;;;;;;12.21;49.33;98697.03;5065138;28;20098;-65
2021/03/25 10:23:26;;;;;;;1999.90;999.90;;;;;;;12.25;49.90;98705.50;5062808;28;20052;-66
2021/03/25 10:26:07;;;;;;;1999.90;999.90;;;;;;;13.17;49.60;98704.25;5064144;28;20432;-66
2021/03/25 10:28:38;;;;;;;1999.90;999.90;;;;;;;13.24;48.05;98689.84;5065227;28;20484;-66
2021/03/25 10:31:15;;;;;;;1999.90;999.90;;;;;;;12.98;49.69;98694.38;5063089;28;20052;-67
2021/03/25 10:33:41;;;;;;;1999.90;999.90;;;;;;;13.67;48.24;98691.56;5061069;28;20109;-66
2021/03/25 10:36:21;;;;;;;1999.90;999.90;;;;;;;14.28;45.80;98688.28;5062622;28;20573;-66
2021/03/25 10:38:53;;;;;;;1999.90;999.90;;;;;;;14.91;44.93;98681.72;5064039;28;20049;-66
2021/03/25 10:41:25;;;;;;;1999.90;999.90;;;;;;;13.89;46.45;98687.66;5064751;28;20442;-66
2021/03/25 10:43:53;;;;;;;1999.90;999.90;;;;;;;13.85;46.21;98681.13;5062664;28;20548;-67
2021/03/25 10:46:32;;;;;;;1999.90;999.90;;;;;;;14.70;45.62;98674.25;5055124;28;20139;-66
2021/03/25 10:49:02;;;;;;;1999.90;999.90;;;;;;;14.38;45.53;98679.50;5065760;28;20056;-67
2021/03/25 10:51:31;;;;;;;1999.90;999.90;;;;;;;14.83;44.06;98679.84;5062608;28;20132;-66
2021/03/25 10:54:02;;;;;;;1999.90;999.90;;;;;;;13.99;45.39;98680.84;5066731;28;20056;-67
2021/03/25 10:56:38;;;;;;;1999.90;999.90;;;;;;;14.08;46.33;98678.78;5059570;28;20099;-65
2021/03/25 10:59:10;;;;;;;1999.90;999.90;;;;;;;13.54;46.33;98677.59;5057508;28;20064;-66
2021/03/25 11:01:46;;;;;;;1999.90;999.90;;;;;;;13.91;46.52;98682.56;5061160;28;20063;-67
2021/03/25 11:04:23;;;;;;;1999.90;999.90;;;;;;;14.55;44.80;98670.13;5052834;28;20057;-66
2021/03/25 11:06:50;;;;;;;1999.90;999.90;;;;;;;13.94;44.66;98673.53;5062395;28;20068;-65
2021/03/25 11:09:18;;;;;;;1999.90;999.90;;;;;;;12.08;48.76;98673.91;5056695;28;20598;-65
2021/03/25 11:11:45;;;;;;;1999.90;999.90;;;;;;;12.92;47.64;98673.53;5060801;28;20045;-65
2021/03/25 11:14:34;;;;;;;1999.90;999.90;;;;;;;13.15;48.36;98671.25;5058133;28;20052;-66
2021/03/25 11:17:15;;;;;;;1999.90;999.90;;;;;;;13.74;48.31;98662.09;5055418;28;20141;-66
2021/03/25 11:19:42;;;;;;;1999.90;999.90;;;;;;;13.98;45.70;98663.38;5063740;28;20048;-66
2021/03/25 11:22:13;;;;;;;1999.90;999.90;;;;;;;14.53;44.44;98660.50;5063746;28;20064;-66
2021/03/25 11:24:40;;;;;;;1999.90;999.90;;;;;;;14.44;45.00;98655.06;5063272;28;20106;-66
2021/03/25 11:27:12;;;;;;;1999.90;999.90;;;;;;;15.05;44.34;98659.91;5057942;28;20340;-66
2021/03/25 11:29:39;;;;;;;1999.90;999.90;;;;;;;14.51;43.73;98658.06;5061917;28;20052;-66
2021/03/25 11:32:26;;;;;;;1999.90;999.90;;;;;;;15.01;nan;98653.41;5060311;28;20056;-66
2021/03/25 11:34:54;;;;;;;1999.90;999.90;;;;;;;14.64;43.70;98655.38;5053303;28;20075;-65
2021/03/25 11:37:31;;;;;;;1999.90;999.90;;;;;;;15.54;42.65;98641.50;5057277;28;20057;-65
2021/03/25 11:40:06;;;;;;;1999.90;999.90;;;;;;;16.71;41.56;98642.41;5058431;28;20499;-66